sensor_id;sensor_type;location;lat;lon;timestamp;pressure;altitude;pressure_sealevel;temperature;humidity
70544;BME280;58097;48.364;-1.224;2022-09-30T00:00:28;99066.66;;;9.38;73.35
70544;BME280;58097;48.364;-1.224;2022-09-30T00:02:54;99057.34;;;9.39;73.38
70544;BME280;58097;48.364;-1.224;2022-09-30T00:05:19;99057.19;;;9.41;73.21
70544;BME280;58097;48.364;-1.224;2022-09-30T00:07:44;99061.66;;;9.42;72.93
70544;BME280;58097;48.364;-1.224;2022-09-30T00:10:10;99055.97;;;9.43;73.07
70544;BME280;58097;48.364;-1.224;2022-09-30T00:12:36;99064.25;;;9.43;72.92
70544;BME280;58097;48.364;-1.224;2022-09-30T00:15:01;99065.97;;;9.44;72.95
70544;BME280;58097;48.364;-1.224;2022-09-30T00:17:27;99055.97;;;9.43;72.87
70544;BME280;58097;48.364;-1.224;2022-09-30T00:19:52;99062.50;;;9.42;72.78
70544;BME280;58097;48.364;-1.224;2022-09-30T00:22:17;99064.41;;;9.42;72.92
70544;BME280;58097;48.364;-1.224;2022-09-30T00:24:43;99067.00;;;9.43;72.98
70544;BME280;58097;48.364;-1.224;2022-09-30T00:27:08;99065.09;;;9.44;72.88
70544;BME280;58097;48.364;-1.224;2022-09-30T00:29:33;99065.28;;;9.42;72.83
70544;BME280;58097;48.364;-1.224;2022-09-30T00:31:59;99075.25;;;9.43;72.89
70544;BME280;58097;48.364;-1.224;2022-09-30T00:34:24;99073.53;;;9.42;72.85
70544;BME280;58097;48.364;-1.224;2022-09-30T00:36:52;99063.56;;;9.41;73.00
70544;BME280;58097;48.364;-1.224;2022-09-30T00:39:20;99065.28;;;9.42;73.03
70544;BME280;58097;48.364;-1.224;2022-09-30T00:41:48;99069.06;;;9.41;72.99
70544;BME280;58097;48.364;-1.224;2022-09-30T00:44:48;99085.78;;;9.40;73.09
70544;BME280;58097;48.364;-1.224;2022-09-30T00:50:44;99078.38;;;9.40;73.63
70544;BME280;58097;48.364;-1.224;2022-09-30T00:53:26;99086.28;;;9.43;73.81
70544;BME280;58097;48.364;-1.224;2022-09-30T00:56:00;99094.56;;;9.43;73.43
70544;BME280;58097;48.364;-1.224;2022-09-30T01:00:59;99081.66;;;9.44;73.61
70544;BME280;58097;48.364;-1.224;2022-09-30T01:03:28;99078.03;;;9.43;73.78
70544;BME280;58097;48.364;-1.224;2022-09-30T01:05:54;99093.34;;;9.46;73.51
70544;BME280;58097;48.364;-1.224;2022-09-30T01:08:21;99100.09;;;9.43;73.62
70544;BME280;58097;48.364;-1.224;2022-09-30T01:10:47;99100.09;;;9.43;73.58
70544;BME280;58097;48.364;-1.224;2022-09-30T01:13:13;99104.22;;;9.39;73.57
70544;BME280;58097;48.364;-1.224;2022-09-30T01:21:58;99108.03;;;9.30;73.29
70544;BME280;58097;48.364;-1.224;2022-09-30T01:30:19;99108.56;;;9.25;73.36
70544;BME280;58097;48.364;-1.224;2022-09-30T01:38:28;99121.44;;;9.25;73.56
70544;BME280;58097;48.364;-1.224;2022-09-30T01:41:04;99122.47;;;9.24;73.82
70544;BME280;58097;48.364;-1.224;2022-09-30T01:46:02;99128.19;;;9.30;74.04
70544;BME280;58097;48.364;-1.224;2022-09-30T01:48:39;99129.06;;;9.31;74.03
70544;BME280;58097;48.364;-1.224;2022-09-30T01:51:16;99133.53;;;9.32;74.03
70544;BME280;58097;48.364;-1.224;2022-09-30T01:58:57;99130.09;;;9.30;73.89
70544;BME280;58097;48.364;-1.224;2022-09-30T02:01:47;99138.72;;;9.27;73.97
70544;BME280;58097;48.364;-1.224;2022-09-30T02:04:20;99137.84;;;9.26;74.08
70544;BME280;58097;48.364;-1.224;2022-09-30T02:06:52;99138.88;;;9.25;73.70
70544;BME280;58097;48.364;-1.224;2022-09-30T02:09:31;99140.44;;;9.28;74.02
70544;BME280;58097;48.364;-1.224;2022-09-30T02:11:58;99137.84;;;9.26;73.93
70544;BME280;58097;48.364;-1.224;2022-09-30T02:14:35;99146.13;;;9.26;73.85
70544;BME280;58097;48.364;-1.224;2022-09-30T02:17:09;99137.00;;;9.26;73.75
70544;BME280;58097;48.364;-1.224;2022-09-30T02:19:44;99135.56;;;9.22;73.94
70544;BME280;58097;48.364;-1.224;2022-09-30T02:22:16;99136.78;;;9.19;73.87
70544;BME280;58097;48.364;-1.224;2022-09-30T02:24:43;99141.25;;;9.20;73.95
70544;BME280;58097;48.364;-1.224;2022-09-30T02:27:20;99136.97;;;9.10;73.80
70544;BME280;58097;48.364;-1.224;2022-09-30T02:29:52;99138.50;;;9.04;73.93
70544;BME280;58097;48.364;-1.224;2022-09-30T02:32:33;99151.09;;;8.98;73.73
70544;BME280;58097;48.364;-1.224;2022-09-30T02:35:05;99151.91;;;8.91;73.61
70544;BME280;58097;48.364;-1.224;2022-09-30T02:37:42;99142.94;;;8.89;74.04
70544;BME280;58097;48.364;-1.224;2022-09-30T02:42:42;99154.31;;;8.78;74.39
70544;BME280;58097;48.364;-1.224;2022-09-30T02:45:10;99154.28;;;8.69;74.07
70544;BME280;58097;48.364;-1.224;2022-09-30T02:47:48;99155.78;;;8.64;73.98
70544;BME280;58097;48.364;-1.224;2022-09-30T02:50:30;99168.00;;;8.61;74.21
70544;BME280;58097;48.364;-1.224;2022-09-30T02:56:02;99159.03;;;8.51;73.82
70544;BME280;58097;48.364;-1.224;2022-09-30T02:58:28;99159.38;;;8.48;73.67
70544;BME280;58097;48.364;-1.224;2022-09-30T03:00:55;99165.03;;;8.47;73.46
70544;BME280;58097;48.364;-1.224;2022-09-30T03:03:26;99157.28;;;8.42;73.20
70544;BME280;58097;48.364;-1.224;2022-09-30T03:05:53;99157.75;;;8.37;73.52
70544;BME280;58097;48.364;-1.224;2022-09-30T03:08:19;99155.16;;;8.36;73.47
70544;BME280;58097;48.364;-1.224;2022-09-30T03:10:46;99162.72;;;8.34;73.55
70544;BME280;58097;48.364;-1.224;2022-09-30T03:15:56;99165.09;;;8.29;73.52
70544;BME280;58097;48.364;-1.224;2022-09-30T03:21:17;99166.63;;;8.23;73.52
70544;BME280;58097;48.364;-1.224;2022-09-30T03:34:28;99173.16;;;8.22;73.62
70544;BME280;58097;48.364;-1.224;2022-09-30T03:42:11;99172.47;;;8.20;73.62
70544;BME280;58097;48.364;-1.224;2022-09-30T03:44:43;99167.28;;;8.17;73.50
70544;BME280;58097;48.364;-1.224;2022-09-30T03:47:13;99175.53;;;8.17;73.48
70544;BME280;58097;48.364;-1.224;2022-09-30T03:49:51;99172.78;;;8.17;73.36
70544;BME280;58097;48.364;-1.224;2022-09-30T03:52:17;99167.44;;;8.16;73.37
70544;BME280;58097;48.364;-1.224;2022-09-30T03:54:53;99170.53;;;8.13;73.38
70544;BME280;58097;48.364;-1.224;2022-09-30T03:57:19;99165.88;;;8.13;73.47
70544;BME280;58097;48.364;-1.224;2022-09-30T03:59:44;99169.66;;;8.12;73.59
70544;BME280;58097;48.364;-1.224;2022-09-30T04:02:10;99181.88;;;8.10;73.59
70544;BME280;58097;48.364;-1.224;2022-09-30T04:04:40;99191.97;;;8.09;73.55
70544;BME280;58097;48.364;-1.224;2022-09-30T04:07:07;99191.97;;;8.09;73.63
70544;BME280;58097;48.364;-1.224;2022-09-30T04:09:34;99195.75;;;8.08;73.57
70544;BME280;58097;48.364;-1.224;2022-09-30T04:12:01;99201.25;;;8.08;73.59
70544;BME280;58097;48.364;-1.224;2022-09-30T04:14:26;99203.88;;;8.10;73.60
70544;BME280;58097;48.364;-1.224;2022-09-30T04:16:51;99204.19;;;8.06;73.71
70544;BME280;58097;48.364;-1.224;2022-09-30T04:19:17;99202.63;;;8.04;73.48
70544;BME280;58097;48.364;-1.224;2022-09-30T04:21:42;99207.97;;;8.05;73.66
70544;BME280;58097;48.364;-1.224;2022-09-30T04:24:07;99212.59;;;8.05;73.92
70544;BME280;58097;48.364;-1.224;2022-09-30T04:26:33;99209.16;;;8.03;74.46
70544;BME280;58097;48.364;-1.224;2022-09-30T04:28:58;99209.84;;;8.05;74.32
70544;BME280;58097;48.364;-1.224;2022-09-30T04:31:24;99205.38;;;8.04;74.06
70544;BME280;58097;48.364;-1.224;2022-09-30T04:33:49;99216.38;;;8.04;74.12
70544;BME280;58097;48.364;-1.224;2022-09-30T04:36:15;99212.94;;;8.02;74.01
70544;BME280;58097;48.364;-1.224;2022-09-30T04:38:40;99218.59;;;8.00;74.50
70544;BME280;58097;48.364;-1.224;2022-09-30T04:41:07;99221.34;;;8.00;74.48
70544;BME280;58097;48.364;-1.224;2022-09-30T04:43:33;99212.22;;;8.00;74.40
70544;BME280;58097;48.364;-1.224;2022-09-30T04:45:58;99218.59;;;8.00;74.32
70544;BME280;58097;48.364;-1.224;2022-09-30T04:48:24;99215.69;;;8.02;74.26
70544;BME280;58097;48.364;-1.224;2022-09-30T04:50:50;99218.44;;;8.02;74.29
70544;BME280;58097;48.364;-1.224;2022-09-30T04:53:16;99211.19;;;8.01;74.30
70544;BME280;58097;48.364;-1.224;2022-09-30T04:55:43;99215.84;;;8.00;74.29
70544;BME280;58097;48.364;-1.224;2022-09-30T04:58:08;99221.19;;;8.02;73.83
70544;BME280;58097;48.364;-1.224;2022-09-30T05:00:34;99221.19;;;8.02;74.02
70544;BME280;58097;48.364;-1.224;2022-09-30T05:03:00;99212.22;;;8.00;74.01
70544;BME280;58097;48.364;-1.224;2022-09-30T05:05:25;99221.13;;;7.94;74.12
70544;BME280;58097;48.364;-1.224;2022-09-30T05:07:50;99216.16;;;7.97;74.49
70544;BME280;58097;48.364;-1.224;2022-09-30T05:10:16;99217.56;;;8.01;74.87
70544;BME280;58097;48.364;-1.224;2022-09-30T05:12:41;99214.81;;;8.01;74.91
70544;BME280;58097;48.364;-1.224;2022-09-30T05:15:08;99213.94;;;8.01;75.15
70544;BME280;58097;48.364;-1.224;2022-09-30T05:17:34;99215.50;;;8.03;75.00
70544;BME280;58097;48.364;-1.224;2022-09-30T05:20:00;99217.41;;;8.03;74.78
70544;BME280;58097;48.364;-1.224;2022-09-30T05:22:25;99212.06;;;8.01;74.65
70544;BME280;58097;48.364;-1.224;2022-09-30T05:24:51;99212.22;;;8.00;74.53
70544;BME280;58097;48.364;-1.224;2022-09-30T05:27:18;99222.53;;;7.98;74.52
70544;BME280;58097;48.364;-1.224;2022-09-30T05:29:43;99224.59;;;7.96;74.61
70544;BME280;58097;48.364;-1.224;2022-09-30T05:32:09;99228.38;;;7.95;74.73
70544;BME280;58097;48.364;-1.224;2022-09-30T05:34:35;99240.56;;;7.92;74.66
70544;BME280;58097;48.364;-1.224;2022-09-30T05:37:03;99247.94;;;7.92;74.60
70544;BME280;58097;48.364;-1.224;2022-09-30T05:39:29;99248.97;;;7.91;74.44
70544;BME280;58097;48.364;-1.224;2022-09-30T05:41:58;99248.44;;;7.87;74.44
70544;BME280;58097;48.364;-1.224;2022-09-30T05:44:23;99249.28;;;7.88;74.35
70544;BME280;58097;48.364;-1.224;2022-09-30T05:46:49;99246.88;;;7.85;74.13
70544;BME280;58097;48.364;-1.224;2022-09-30T05:49:15;99252.53;;;7.83;74.23
70544;BME280;58097;48.364;-1.224;2022-09-30T05:51:40;99265.00;;;7.77;73.99
70544;BME280;58097;48.364;-1.224;2022-09-30T05:54:06;99262.59;;;7.74;74.31
70544;BME280;58097;48.364;-1.224;2022-09-30T05:56:31;99270.84;;;7.74;74.38
70544;BME280;58097;48.364;-1.224;2022-09-30T05:58:59;99270.84;;;7.74;74.33
70544;BME280;58097;48.364;-1.224;2022-09-30T06:01:24;99268.41;;;7.71;73.88
70544;BME280;58097;48.364;-1.224;2022-09-30T06:03:49;99277.28;;;7.65;74.25
70544;BME280;58097;48.364;-1.224;2022-09-30T06:06:15;99289.31;;;7.64;73.92
70544;BME280;58097;48.364;-1.224;2022-09-30T06:08:41;99289.63;;;7.61;74.10
70544;BME280;58097;48.364;-1.224;2022-09-30T06:11:15;99295.44;;;7.58;74.18
70544;BME280;58097;48.364;-1.224;2022-09-30T06:13:42;99293.88;;;7.56;74.38
70544;BME280;58097;48.364;-1.224;2022-09-30T06:16:09;99302.13;;;7.56;74.44
70544;BME280;58097;48.364;-1.224;2022-09-30T06:18:36;99303.84;;;7.57;74.44
70544;BME280;58097;48.364;-1.224;2022-09-30T06:21:05;99300.25;;;7.56;74.59
70544;BME280;58097;48.364;-1.224;2022-09-30T06:23:31;99309.19;;;7.58;74.75
70544;BME280;58097;48.364;-1.224;2022-09-30T06:25:59;99302.19;;;7.64;75.06
70544;BME280;58097;48.364;-1.224;2022-09-30T06:28:25;99301.03;;;7.66;75.32
70544;BME280;58097;48.364;-1.224;2022-09-30T06:30:51;99301.56;;;7.70;75.32
70544;BME280;58097;48.364;-1.224;2022-09-30T06:33:16;99313.13;;;7.73;75.42
70544;BME280;58097;48.364;-1.224;2022-09-30T06:35:42;99309.03;;;7.77;75.59
70544;BME280;58097;48.364;-1.224;2022-09-30T06:38:09;99302.91;;;7.84;75.89
70544;BME280;58097;48.364;-1.224;2022-09-30T06:40:34;99302.59;;;7.87;75.79
70544;BME280;58097;48.364;-1.224;2022-09-30T06:43:01;99302.28;;;7.90;75.82
70544;BME280;58097;48.364;-1.224;2022-09-30T06:45:27;99293.38;;;7.96;75.79
70544;BME280;58097;48.364;-1.224;2022-09-30T06:47:57;99289.28;;;8.00;75.83
70544;BME280;58097;48.364;-1.224;2022-09-30T06:50:22;99299.78;;;8.04;75.79
70544;BME280;58097;48.364;-1.224;2022-09-30T06:52:47;99294.81;;;8.08;75.84
70544;BME280;58097;48.364;-1.224;2022-09-30T06:55:13;99292.81;;;8.10;75.85
70544;BME280;58097;48.364;-1.224;2022-09-30T06:57:39;99288.88;;;8.13;76.10
70544;BME280;58097;48.364;-1.224;2022-09-30T07:00:06;99294.75;;;8.18;76.01
70544;BME280;58097;48.364;-1.224;2022-09-30T07:02:31;99278.94;;;8.20;76.25
70544;BME280;58097;48.364;-1.224;2022-09-30T07:04:58;99276.56;;;8.25;76.58
70544;BME280;58097;48.364;-1.224;2022-09-30T07:07:24;99286.91;;;8.31;77.98
70544;BME280;58097;48.364;-1.224;2022-09-30T07:09:49;99289.91;;;8.37;77.91
70544;BME280;58097;48.364;-1.224;2022-09-30T07:12:15;99282.06;;;8.43;78.33
70544;BME280;58097;48.364;-1.224;2022-09-30T07:14:41;99287.06;;;8.47;77.89
70544;BME280;58097;48.364;-1.224;2022-09-30T07:17:07;99288.13;;;8.54;78.65
70544;BME280;58097;48.364;-1.224;2022-09-30T07:19:32;99290.91;;;8.62;78.25
70544;BME280;58097;48.364;-1.224;2022-09-30T07:21:58;99287.47;;;8.60;80.92
70544;BME280;58097;48.364;-1.224;2022-09-30T07:24:44;99284.28;;;8.73;79.52
70544;BME280;58097;48.364;-1.224;2022-09-30T07:27:09;99290.00;;;8.88;79.33
70544;BME280;58097;48.364;-1.224;2022-09-30T07:29:34;99292.50;;;8.99;78.87
70544;BME280;58097;48.364;-1.224;2022-09-30T07:32:00;99295.44;;;9.06;79.14
70544;BME280;58097;48.364;-1.224;2022-09-30T07:34:26;99297.53;;;9.12;78.79
70544;BME280;58097;48.364;-1.224;2022-09-30T07:36:51;99302.19;;;9.19;78.82
70544;BME280;58097;48.364;-1.224;2022-09-30T07:39:16;99298.22;;;9.22;79.24
70544;BME280;58097;48.364;-1.224;2022-09-30T07:41:42;99300.00;;;9.31;79.34
70544;BME280;58097;48.364;-1.224;2022-09-30T07:44:11;99300.72;;;9.41;79.55
70544;BME280;58097;48.364;-1.224;2022-09-30T07:46:39;99308.16;;;9.57;79.01
70544;BME280;58097;48.364;-1.224;2022-09-30T07:49:07;99303.19;;;9.69;79.06
70544;BME280;58097;48.364;-1.224;2022-09-30T07:51:38;99300.44;;;9.85;78.89
70544;BME280;58097;48.364;-1.224;2022-09-30T07:54:11;99307.34;;;10.05;79.36
70544;BME280;58097;48.364;-1.224;2022-09-30T07:56:37;99315.28;;;10.33;79.61
70544;BME280;58097;48.364;-1.224;2022-09-30T07:59:04;99312.47;;;10.65;79.91
70544;BME280;58097;48.364;-1.224;2022-09-30T08:01:30;99321.03;;;11.03;80.36
70544;BME280;58097;48.364;-1.224;2022-09-30T08:03:58;99316.16;;;11.44;80.48
70544;BME280;58097;48.364;-1.224;2022-09-30T08:06:26;99319.06;;;11.82;80.19
70544;BME280;58097;48.364;-1.224;2022-09-30T08:08:54;99318.28;;;12.19;79.19
70544;BME280;58097;48.364;-1.224;2022-09-30T08:11:20;99313.97;;;12.54;79.41
70544;BME280;58097;48.364;-1.224;2022-09-30T08:13:53;99309.69;;;12.81;76.76
70544;BME280;58097;48.364;-1.224;2022-09-30T08:16:20;99312.19;;;13.05;76.22
70544;BME280;58097;48.364;-1.224;2022-09-30T08:18:45;99317.75;;;13.20;74.87
70544;BME280;58097;48.364;-1.224;2022-09-30T08:21:11;99325.41;;;13.32;74.50
70544;BME280;58097;48.364;-1.224;2022-09-30T08:23:36;99331.66;;;13.56;75.37
70544;BME280;58097;48.364;-1.224;2022-09-30T08:26:08;99336.59;;;13.75;74.32
70544;BME280;58097;48.364;-1.224;2022-09-30T08:28:35;99336.22;;;13.78;73.33
70544;BME280;58097;48.364;-1.224;2022-09-30T08:33:29;99335.59;;;13.98;70.80
70544;BME280;58097;48.364;-1.224;2022-09-30T08:35:54;99334.25;;;14.15;73.32
70544;BME280;58097;48.364;-1.224;2022-09-30T08:38:19;99324.16;;;14.29;73.73
70544;BME280;58097;48.364;-1.224;2022-09-30T08:41:01;99327.19;;;14.34;70.71
70544;BME280;58097;48.364;-1.224;2022-09-30T08:43:49;99325.81;;;14.44;71.26
70544;BME280;58097;48.364;-1.224;2022-09-30T08:46:27;99328.72;;;14.57;73.10
70544;BME280;58097;48.364;-1.224;2022-09-30T08:49:16;99331.88;;;14.76;72.23
70544;BME280;58097;48.364;-1.224;2022-09-30T08:51:47;99327.69;;;14.93;71.77
70544;BME280;58097;48.364;-1.224;2022-09-30T08:54:18;99337.59;;;15.02;71.07
70544;BME280;58097;48.364;-1.224;2022-09-30T08:56:44;99347.53;;;15.11;71.34
70544;BME280;58097;48.364;-1.224;2022-09-30T08:59:28;99360.00;;;15.22;69.91
70544;BME280;58097;48.364;-1.224;2022-09-30T09:02:33;99369.44;;;15.28;69.67
70544;BME280;58097;48.364;-1.224;2022-09-30T09:05:04;99374.22;;;15.34;69.48
70544;BME280;58097;48.364;-1.224;2022-09-30T09:10:29;99378.13;;;15.46;69.96
70544;BME280;58097;48.364;-1.224;2022-09-30T09:18:32;99381.34;;;15.84;68.56
70544;BME280;58097;48.364;-1.224;2022-09-30T09:21:19;99381.19;;;15.99;68.34
70544;BME280;58097;48.364;-1.224;2022-09-30T09:23:46;99378.44;;;16.12;69.08
70544;BME280;58097;48.364;-1.224;2022-09-30T09:26:13;99381.06;;;16.20;68.00
70544;BME280;58097;48.364;-1.224;2022-09-30T09:31:26;99367.13;;;16.20;68.48
70544;BME280;58097;48.364;-1.224;2022-09-30T09:33:55;99373.34;;;16.22;67.25
70544;BME280;58097;48.364;-1.224;2022-09-30T09:47:52;99372.53;;;15.80;68.19
70544;BME280;58097;48.364;-1.224;2022-09-30T09:50:26;99365.66;;;15.76;67.13
70544;BME280;58097;48.364;-1.224;2022-09-30T09:55:43;99362.28;;;15.46;67.52
70544;BME280;58097;48.364;-1.224;2022-09-30T09:58:13;99359.28;;;15.48;68.86
70544;BME280;58097;48.364;-1.224;2022-09-30T10:00:40;99350.16;;;15.61;68.77
70544;BME280;58097;48.364;-1.224;2022-09-30T10:03:15;99358.72;;;15.59;66.36
70544;BME280;58097;48.364;-1.224;2022-09-30T10:08:29;99361.69;;;15.58;66.89
70544;BME280;58097;48.364;-1.224;2022-09-30T10:10:58;99351.91;;;15.62;67.38
70544;BME280;58097;48.364;-1.224;2022-09-30T10:13:26;99351.63;;;15.57;66.44
70544;BME280;58097;48.364;-1.224;2022-09-30T10:15:55;99356.41;;;15.63;67.78
70544;BME280;58097;48.364;-1.224;2022-09-30T10:18:37;99365.03;;;15.81;67.99
70544;BME280;58097;48.364;-1.224;2022-09-30T10:21:18;99367.03;;;15.94;67.98
70544;BME280;58097;48.364;-1.224;2022-09-30T10:23:44;99370.91;;;15.99;66.90
70544;BME280;58097;48.364;-1.224;2022-09-30T10:31:35;99365.19;;;16.27;66.66
70544;BME280;58097;48.364;-1.224;2022-09-30T10:34:22;99356.84;;;16.34;64.35
70544;BME280;58097;48.364;-1.224;2022-09-30T10:36:48;99351.03;;;16.35;64.45
70544;BME280;58097;48.364;-1.224;2022-09-30T10:41:50;99369.94;;;16.40;64.80
70544;BME280;58097;48.364;-1.224;2022-09-30T10:44:19;99365.88;;;16.56;65.66
70544;BME280;58097;48.364;-1.224;2022-09-30T10:46:46;99357.72;;;16.54;64.06
70544;BME280;58097;48.364;-1.224;2022-09-30T10:49:25;99360.75;;;16.66;64.31
70544;BME280;58097;48.364;-1.224;2022-09-30T10:51:51;99363.97;;;16.76;64.57
70544;BME280;58097;48.364;-1.224;2022-09-30T10:57:11;99353.69;;;16.83;64.54
70544;BME280;58097;48.364;-1.224;2022-09-30T10:59:38;99353.28;;;16.80;63.88
70544;BME280;58097;48.364;-1.224;2022-09-30T11:02:18;99357.56;;;16.82;63.23
70544;BME280;58097;48.364;-1.224;2022-09-30T11:05:19;99354.50;;;16.64;62.93
70544;BME280;58097;48.364;-1.224;2022-09-30T11:08:21;99362.44;;;16.54;64.00
70544;BME280;58097;48.364;-1.224;2022-09-30T11:10:58;99350.41;;;16.47;63.73
70544;BME280;58097;48.364;-1.224;2022-09-30T11:24:52;99339.84;;;16.09;64.56
70544;BME280;58097;48.364;-1.224;2022-09-30T11:30:29;99332.97;;;16.05;64.05
70544;BME280;58097;48.364;-1.224;2022-09-30T11:33:23;99336.41;;;16.07;64.70
70544;BME280;58097;48.364;-1.224;2022-09-30T11:36:19;99330.63;;;16.15;64.47
70544;BME280;58097;48.364;-1.224;2022-09-30T11:41:31;99339.47;;;16.32;64.66
70544;BME280;58097;48.364;-1.224;2022-09-30T11:58:10;99342.31;;;16.71;63.72
70544;BME280;58097;48.364;-1.224;2022-09-30T12:00:43;99334.59;;;16.80;62.92
70544;BME280;58097;48.364;-1.224;2022-09-30T12:03:18;99325.34;;;16.86;62.34
70544;BME280;58097;48.364;-1.224;2022-09-30T12:05:47;99315.03;;;16.93;62.41
70544;BME280;58097;48.364;-1.224;2022-09-30T12:08:19;99314.59;;;17.10;63.02
70544;BME280;58097;48.364;-1.224;2022-09-30T12:10:55;99302.78;;;17.08;59.73
70544;BME280;58097;48.364;-1.224;2022-09-30T12:13:25;99310.09;;;17.09;60.43
70544;BME280;58097;48.364;-1.224;2022-09-30T12:15:55;99307.28;;;17.15;60.64
70544;BME280;58097;48.364;-1.224;2022-09-30T12:18:26;99313.69;;;17.22;62.32
70544;BME280;58097;48.364;-1.224;2022-09-30T12:21:02;99306.38;;;17.28;62.49
70544;BME280;58097;48.364;-1.224;2022-09-30T12:23:35;99302.94;;;17.26;61.61
70544;BME280;58097;48.364;-1.224;2022-09-30T12:26:06;99305.28;;;17.29;60.97
70544;BME280;58097;48.364;-1.224;2022-09-30T12:45:03;99294.88;;;16.91;60.33
70544;BME280;58097;48.364;-1.224;2022-09-30T12:47:43;99282.41;;;16.74;60.84
70544;BME280;58097;48.364;-1.224;2022-09-30T12:50:14;99287.16;;;16.73;60.52
70544;BME280;58097;48.364;-1.224;2022-09-30T12:52:40;99281.34;;;16.88;61.87
70544;BME280;58097;48.364;-1.224;2022-09-30T12:55:08;99284.31;;;17.00;61.77
70544;BME280;58097;48.364;-1.224;2022-09-30T12:57:45;99277.66;;;17.01;60.40
70544;BME280;58097;48.364;-1.224;2022-09-30T13:02:48;99288.16;;;17.06;60.96
70544;BME280;58097;48.364;-1.224;2022-09-30T13:13:27;99275.53;;;16.90;59.36
70544;BME280;58097;48.364;-1.224;2022-09-30T13:16:00;99277.25;;;16.91;59.18
70544;BME280;58097;48.364;-1.224;2022-09-30T13:21:15;99260.25;;;17.06;58.82
70544;BME280;58097;48.364;-1.224;2022-09-30T13:23:55;99261.56;;;17.10;58.23
70544;BME280;58097;48.364;-1.224;2022-09-30T13:26:31;99256.19;;;17.08;58.93
70544;BME280;58097;48.364;-1.224;2022-09-30T13:31:27;99262.59;;;17.15;59.24
70544;BME280;58097;48.364;-1.224;2022-09-30T13:36:28;99257.44;;;17.06;57.72
70544;BME280;58097;48.364;-1.224;2022-09-30T13:42:16;99253.41;;;16.95;57.83
70544;BME280;58097;48.364;-1.224;2022-09-30T13:45:15;99264.38;;;16.90;58.84
70544;BME280;58097;48.364;-1.224;2022-09-30T13:47:47;99263.13;;;16.79;58.57
70544;BME280;58097;48.364;-1.224;2022-09-30T13:50:30;99263.13;;;16.79;58.67
70544;BME280;58097;48.364;-1.224;2022-09-30T13:53:00;99266.75;;;16.60;56.54
70544;BME280;58097;48.364;-1.224;2022-09-30T13:55:36;99257.97;;;16.50;57.37
70544;BME280;58097;48.364;-1.224;2022-09-30T14:01:02;99244.88;;;16.37;58.02
70544;BME280;58097;48.364;-1.224;2022-09-30T14:07:07;99255.16;;;16.36;58.23
70544;BME280;58097;48.364;-1.224;2022-09-30T14:12:37;99244.63;;;16.19;58.64
70544;BME280;58097;48.364;-1.224;2022-09-30T14:23:40;99234.56;;;15.98;59.60
70544;BME280;58097;48.364;-1.224;2022-09-30T14:29:07;99221.03;;;15.88;60.10
70544;BME280;58097;48.364;-1.224;2022-09-30T14:31:43;99221.88;;;15.89;60.39
70544;BME280;58097;48.364;-1.224;2022-09-30T14:34:11;99239.03;;;15.86;61.09
70544;BME280;58097;48.364;-1.224;2022-09-30T14:36:38;99230.88;;;15.84;60.94
70544;BME280;58097;48.364;-1.224;2022-09-30T14:39:05;99234.31;;;15.79;60.69
70544;BME280;58097;48.364;-1.224;2022-09-30T14:41:37;99232.59;;;15.72;60.83
70544;BME280;58097;48.364;-1.224;2022-09-30T14:44:05;99240.09;;;15.71;61.34
70544;BME280;58097;48.364;-1.224;2022-09-30T14:46:41;99228.94;;;15.71;61.37
70544;BME280;58097;48.364;-1.224;2022-09-30T14:49:19;99236.66;;;15.69;61.66
70544;BME280;58097;48.364;-1.224;2022-09-30T14:51:52;99236.44;;;15.71;61.72
70544;BME280;58097;48.364;-1.224;2022-09-30T14:54:26;99234.31;;;15.66;61.65
70544;BME280;58097;48.364;-1.224;2022-09-30T14:56:55;99228.94;;;15.65;61.66
70544;BME280;58097;48.364;-1.224;2022-09-30T14:59:26;99235.97;;;15.61;61.72
70544;BME280;58097;48.364;-1.224;2022-09-30T15:02:00;99233.41;;;15.59;61.91
70544;BME280;58097;48.364;-1.224;2022-09-30T15:04:32;99239.34;;;15.56;62.21
70544;BME280;58097;48.364;-1.224;2022-09-30T15:07:00;99244.94;;;15.56;62.48
70544;BME280;58097;48.364;-1.224;2022-09-30T15:11:53;99246.22;;;15.54;62.45
70544;BME280;58097;48.364;-1.224;2022-09-30T15:14:23;99237.41;;;15.50;62.35
70544;BME280;58097;48.364;-1.224;2022-09-30T15:16:51;99235.91;;;15.47;62.54
70544;BME280;58097;48.364;-1.224;2022-09-30T15:21:48;99229.91;;;15.44;62.84
70544;BME280;58097;48.364;-1.224;2022-09-30T15:24:15;99236.75;;;15.41;63.28
70544;BME280;58097;48.364;-1.224;2022-09-30T15:26:42;99241.44;;;15.34;63.63
70544;BME280;58097;48.364;-1.224;2022-09-30T15:29:14;99235.19;;;15.32;63.97
70544;BME280;58097;48.364;-1.224;2022-09-30T15:31:46;99237.97;;;15.32;64.35
70544;BME280;58097;48.364;-1.224;2022-09-30T15:34:16;99235.84;;;15.28;64.76
70544;BME280;58097;48.364;-1.224;2022-09-30T15:36:44;99225.56;;;15.28;64.67
70544;BME280;58097;48.364;-1.224;2022-09-30T15:39:23;99231.13;;;15.28;65.27
70544;BME280;58097;48.364;-1.224;2022-09-30T15:42:11;99226.00;;;15.32;65.39
70544;BME280;58097;48.364;-1.224;2022-09-30T15:44:37;99220.25;;;15.33;65.28
70544;BME280;58097;48.364;-1.224;2022-09-30T15:47:05;99213.19;;;15.37;64.99
70544;BME280;58097;48.364;-1.224;2022-09-30T15:54:53;99211.44;;;15.30;64.67
70544;BME280;58097;48.364;-1.224;2022-09-30T15:57:51;99200.72;;;15.27;64.31
70544;BME280;58097;48.364;-1.224;2022-09-30T16:00:45;99217.00;;;15.30;64.59
70544;BME280;58097;48.364;-1.224;2022-09-30T16:03:24;99227.69;;;15.26;64.73
70544;BME280;58097;48.364;-1.224;2022-09-30T16:05:50;99239.91;;;15.25;64.83
70544;BME280;58097;48.364;-1.224;2022-09-30T16:08:23;99233.66;;;15.16;64.73
70544;BME280;58097;48.364;-1.224;2022-09-30T16:10:55;99240.06;;;15.10;64.98
70544;BME280;58097;48.364;-1.224;2022-09-30T16:13:25;99238.75;;;15.06;65.43
70544;BME280;58097;48.364;-1.224;2022-09-30T16:15:53;99230.78;;;15.03;65.59
70544;BME280;58097;48.364;-1.224;2022-09-30T16:18:26;99220.28;;;14.99;65.95
70544;BME280;58097;48.364;-1.224;2022-09-30T16:21:00;99220.91;;;14.94;66.48
70544;BME280;58097;48.364;-1.224;2022-09-30T16:23:34;99229.22;;;14.87;66.76
70544;BME280;58097;48.364;-1.224;2022-09-30T16:28:42;99224.47;;;14.75;67.43
70544;BME280;58097;48.364;-1.224;2022-09-30T16:31:08;99204.31;;;14.73;67.59
70544;BME280;58097;48.364;-1.224;2022-09-30T16:33:37;99200.84;;;14.64;68.25